関東METAR電文


宇都宮(RJTU)
07/19 17:00
METAR RJTU 190800Z 10003KT 060V140 9999 FEW030 BKN220 31/25 Q1009
RMK 1CU030 6CI220 A2979=

相馬が原(RJTS)
07/19 17:00
METAR RJTS 190800Z VRB03KT 9999 FEW040 BKN230 32/23 Q1010 RMK 1CU040
5CI230 A2983=

入間(RJTJ)
07/19 17:00
METAR RJTJ 190800Z 12005KT 050V150 9999 FEW030 BKN200 35/24 Q1007
RMK 1CU030 A2976=

横田(RJTY)
07/19 16:55
METAR RJTY 190755Z 00000KT 10SM FEW050 BKN220 RMK AO2A SLPNO RVRNO
TSNO $=

座間(RJTR)
07/19 10:58
METAR RJTR 190158Z VRB02KT 7SM SCT200 32/23 A2993 RMK SLP133 WND DATA
ESTMD ALST ESTMD=

立川(RJTC)
07/19 17:00
METAR RJTC 190800Z 12006KT 060V160 9999 FEW030 BKN230 34/24 Q1007
RMK 1CU030 5CI230 A2976=

調布(RJTF)
07/19 17:00
METAR RJTF 190800Z 17005KT 130V220 9999 FEW025 BKN/// 34/26 Q1007
RMK 1CU025 A2976=

厚木(RJTA)
07/19 17:00
METAR RJTA 190800Z 19015KT 9999 FEW030 SCT180 BKN/// 34/24 Q1007 RMK
1CU030 3AC180 A2975=

市ヶ谷(RJAI)
07/19 17:00
METAR RJAI 190800Z NIL=

東ヘリ(RJTI)
07/19 16:00
METAR RJTI 190700Z 17011KT 9999 FEW030 BKN/// 30/26 Q1007 RMK 1CU030
A2976=

羽田(RJTT)
07/19 17:30
METAR RJTT 190830Z 18013KT 9999 FEW030 BKN/// 31/25 Q1008 NOSIG RMK
1CU030 A2977=

横須賀(Y-RH)
07/19 17:00
METAR Y-RH 190800Z NIL=

横須賀(US)(RJTX)
07/19 15:52
METAR RJTX 190652Z AUTO VRB06KT 10SM CLR 31/25 A2980 RMK AO2 SLP132
T03060250=

百里(RJAH)
07/19 17:00
METAR RJAH 190800Z 18006KT 9999 FEW015 SCT180 BKN200 32/24 Q1008 RMK
1CU015 3AC180 A2977=

霞ヶ浦(RJAK)
07/19 17:00
METAR RJAK 190800Z 18006KT 9999 FEW025 BKN230 32/25 Q1008 RMK 1CU025
7CI230 A2978=

下総(RJTL)
07/19 17:00
METAR RJTL 190800Z 19008KT 170V240 9999 FEW030 BKN/// 30/26 Q1008
RMK 1CU030 A2977=

成田(RJAA)
07/19 17:30
METAR RJAA 190830Z 22011KT 9999 FEW030 BKN/// 31/26 Q1008 NOSIG RMK
1CU030 A2978=

木更津(RJTK)
07/19 17:00
METAR RJTK 190800Z 20021KT 9999 FEW015 BKN220 28/26 Q1008 RMK 1CU015
7CI220 A2979 MAX WIND 27KT=

館山(RJTE)
07/19 17:00
METAR RJTE 190800Z 22013KT 9999 FEW012 BKN240 29/26 Q1009 RMK 1CU012
A2981=
Copyright(c) 2014 International Meteorological & Oceanographic Consultants Co,.Ltd. All Rights Reserved. Design by http://f-tpl.com